Time;durP1;ratioP1;P1;durP2;ratioP2;P2;SDS_P1;SDS_P2;PMS_P1;PMS_P2;Temp;Humidity;BMP_temperature;BMP_pressure;BME280_temperature;BME280_humidity;BME280_pressure;Samples;Min_cycle;Max_cycle;Signal;HPM_P1;HPM_P2
2023/09/14 07:04:12;;;;;;;4.47;1.83;;;;;;;;;;10524543;28;20040;-81
2023/09/14 08:40:09;;;;;;;7.15;2.08;;;;;;;;;;10430534;28;20033;-83
2023/09/14 08:45:52;;;;;;;5.63;2.30;;;;;;;;;;10430470;28;20034;-85
2023/09/14 08:51:53;;;;;;;9.07;2.17;;;;;;;;;;10428614;28;20059;-85
2023/09/14 09:13:46;;;;;;;5.13;2.00;;;;;;;;;;10391396;28;20038;-81
2023/09/14 09:24:39;;;;;;;7.25;2.30;;;;;;;;;;10390856;28;20026;-82
2023/09/14 10:15:28;;;;;;;5.38;2.25;;;;;;;;;;10388157;28;20042;-82
2023/09/14 10:43:56;;;;;;;4.47;2.00;;;;;;;;;;10307854;28;20538;-81
2023/09/14 10:49:46;;;;;;;4.22;2.00;;;;;;;;;;10192621;29;20443;-81
2023/09/14 11:00:50;;;;;;;3.78;2.00;;;;;;;;;;10201661;29;19950;-81
2023/09/14 11:23:39;;;;;;;6.10;2.67;;;;;;;;;;10224373;29;20024;-83
2023/09/14 11:35:04;;;;;;;4.20;2.00;;;;;;;;;;10279128;29;20559;-83
2023/09/14 11:57:08;;;;;;;6.53;3.15;;;;;;;;;;10335085;22;20057;-84
2023/09/14 12:02:10;;;;;;;4.65;3.05;;;;;;;;;;10439658;28;20037;-85
2023/09/14 12:07:12;;;;;;;5.28;3.05;;;;;;;;;;10442719;28;20037;-83
2023/09/14 12:12:25;;;;;;;6.75;3.42;;;;;;;;;;10421861;28;20113;-83
2023/09/14 12:17:27;;;;;;;5.15;2.53;;;;;;;;;;10413584;28;20070;-84
2023/09/14 12:22:31;;;;;;;4.03;2.80;;;;;;;;;;10430248;28;20450;-83
2023/09/14 12:27:33;;;;;;;4.97;2.85;;;;;;;;;;10412316;28;20036;-84
2023/09/14 12:32:38;;;;;;;3.88;2.67;;;;;;;;;;10413033;28;20057;-85
2023/09/14 12:37:46;;;;;;;4.72;2.67;;;;;;;;;;10432322;28;20116;-85
2023/09/14 12:42:48;;;;;;;4.72;2.40;;;;;;;;;;10414657;28;20405;-85
2023/09/14 12:47:49;;;;;;;4.47;2.50;;;;;;;;;;10414868;28;20033;-85
2023/09/14 12:52:50;;;;;;;6.53;2.30;;;;;;;;;;10412078;28;20576;-84
2023/09/14 12:57:53;;;;;;;4.60;2.33;;;;;;;;;;10412752;28;20135;-85
2023/09/14 13:03:01;;;;;;;4.22;2.35;;;;;;;;;;10414446;28;20105;-84
2023/09/14 13:08:06;;;;;;;4.05;2.53;;;;;;;;;;10430429;28;20038;-85
2023/09/14 13:13:09;;;;;;;3.97;2.17;;;;;;;;;;10414357;28;20547;-86
2023/09/14 13:18:11;;;;;;;6.10;2.65;;;;;;;;;;10416932;28;20092;-85
2023/09/14 13:23:15;;;;;;;6.30;2.60;;;;;;;;;;10432761;28;20040;-85
2023/09/14 13:28:24;;;;;;;4.43;2.22;;;;;;;;;;10415850;28;20029;-85
2023/09/14 13:33:30;;;;;;;3.63;1.98;;;;;;;;;;10417150;28;20401;-86
2023/09/14 13:38:36;;;;;;;4.35;2.20;;;;;;;;;;10434585;28;20041;-86
2023/09/14 13:43:57;;;;;;;3.78;2.00;;;;;;;;;;10454245;28;20089;-85
2023/09/14 13:49:01;;;;;;;5.18;1.95;;;;;;;;;;10419544;28;20030;-85
2023/09/14 13:54:10;;;;;;;5.55;2.38;;;;;;;;;;10411402;28;20038;-85
2023/09/14 13:59:11;;;;;;;5.07;2.20;;;;;;;;;;10409920;28;20045;-86
2023/09/14 14:04:14;;;;;;;4.30;2.10;;;;;;;;;;10426616;28;20397;-86
2023/09/14 14:09:18;;;;;;;5.30;2.03;;;;;;;;;;10418135;28;20036;-85
2023/09/14 14:14:22;;;;;;;3.45;2.03;;;;;;;;;;10435973;28;20037;-86
2023/09/14 14:19:23;;;;;;;4.35;2.17;;;;;;;;;;10420371;28;20636;-86
2023/09/14 14:24:28;;;;;;;3.33;1.85;;;;;;;;;;10438223;28;20089;-87
2023/09/14 14:29:29;;;;;;;5.82;2.40;;;;;;;;;;10418871;28;20039;-86
2023/09/14 14:34:30;;;;;;;4.45;1.92;;;;;;;;;;10418279;28;20029;-83
2023/09/14 14:39:59;;;;;;;5.10;2.30;;;;;;;;;;10409317;28;20080;-85
2023/09/14 14:45:05;;;;;;;3.58;1.90;;;;;;;;;;10418931;28;20078;-87
2023/09/14 14:50:11;;;;;;;5.80;2.95;;;;;;;;;;10434250;28;20124;-85
2023/09/14 14:55:12;;;;;;;4.88;2.50;;;;;;;;;;10416339;28;20065;-85
2023/09/14 15:00:13;;;;;;;5.20;2.08;;;;;;;;;;10401457;28;20072;-84
2023/09/14 15:05:15;;;;;;;6.22;2.42;;;;;;;;;;10415779;28;20038;-84
2023/09/14 15:10:16;;;;;;;5.03;2.33;;;;;;;;;;10416083;28;20109;-83
2023/09/14 15:15:19;;;;;;;5.22;2.33;;;;;;;;;;10416099;28;20060;-85
2023/09/14 15:20:20;;;;;;;4.63;2.35;;;;;;;;;;10433812;28;20085;-85
2023/09/14 15:25:23;;;;;;;6.25;2.28;;;;;;;;;;10416838;28;20045;-82
2023/09/14 15:30:24;;;;;;;4.55;2.45;;;;;;;;;;10418236;28;20048;-84
2023/09/14 15:35:25;;;;;;;4.85;2.75;;;;;;;;;;10418199;28;20033;-85
2023/09/14 15:40:30;;;;;;;4.40;2.67;;;;;;;;;;10415683;28;20047;-84
2023/09/14 15:45:39;;;;;;;5.65;2.22;;;;;;;;;;10409353;28;20500;-84
2023/09/14 15:50:42;;;;;;;5.10;2.42;;;;;;;;;;10411049;28;20025;-85
2023/09/14 15:55:43;;;;;;;4.78;2.80;;;;;;;;;;10427711;28;20469;-85
2023/09/14 16:00:46;;;;;;;5.68;2.50;;;;;;;;;;10410092;28;20401;-85
2023/09/14 16:05:47;;;;;;;4.25;2.58;;;;;;;;;;10414131;28;20041;-85
2023/09/14 16:10:48;;;;;;;4.65;2.53;;;;;;;;;;10414246;28;20544;-85
2023/09/14 16:15:53;;;;;;;6.82;2.80;;;;;;;;;;10415590;28;20034;-84
2023/09/14 16:20:56;;;;;;;5.55;2.70;;;;;;;;;;10416308;28;20531;-87
2023/09/14 16:25:57;;;;;;;4.68;2.40;;;;;;;;;;10415929;28;20128;-84
2023/09/14 16:31:00;;;;;;;6.60;2.90;;;;;;;;;;10417459;28;20030;-87
2023/09/14 16:36:15;;;;;;;7.00;3.60;;;;;;;;;;10433272;28;20034;-85
2023/09/14 16:41:16;;;;;;;5.85;2.92;;;;;;;;;;10364149;28;20129;-85
2023/09/14 16:46:33;;;;;;;3.83;2.53;;;;;;;;;;10343942;28;20038;-86
2023/09/14 16:51:35;;;;;;;3.53;2.17;;;;;;;;;;10418966;28;20105;-86
2023/09/14 16:56:39;;;;;;;4.85;2.20;;;;;;;;;;10411594;28;20033;-86
2023/09/14 17:01:40;;;;;;;5.05;3.30;;;;;;;;;;10431692;28;20034;-85
2023/09/14 17:06:41;;;;;;;4.22;3.25;;;;;;;;;;10425428;28;20548;-85
2023/09/14 17:11:57;;;;;;;4.20;3.05;;;;;;;;;;10414659;28;20068;-85
2023/09/14 17:16:59;;;;;;;6.13;3.47;;;;;;;;;;10404984;28;20036;-85
2023/09/14 17:22:29;;;;;;;3.75;2.33;;;;;;;;;;10416753;28;20045;-85
2023/09/14 17:27:30;;;;;;;;;;;;;;;;;;10417650;28;20036;-85
2023/09/14 17:32:34;;;;;;;5.28;2.78;;;;;;;;;;10425439;28;20004;-87
2023/09/14 17:37:35;;;;;;;5.80;3.30;;;;;;;;;;10428706;28;20021;-87
2023/09/14 17:42:39;;;;;;;5.32;2.70;;;;;;;;;;10433854;28;20047;-87
2023/09/14 17:47:51;;;;;;;4.22;2.70;;;;;;;;;;10414954;28;20029;-87
2023/09/14 17:52:55;;;;;;;3.58;2.40;;;;;;;;;;10440594;28;20043;-85
2023/09/14 17:58:02;;;;;;;5.43;2.90;;;;;;;;;;10457073;22;20516;-85
2023/09/14 18:03:03;;;;;;;4.00;2.50;;;;;;;;;;10451310;28;20029;-85
2023/09/14 18:08:30;;;;;;;4.18;2.80;;;;;;;;;;10450680;28;20041;-84
2023/09/14 18:13:32;;;;;;;4.07;2.65;;;;;;;;;;10383537;28;20034;-84
2023/09/14 18:18:48;;;;;;;6.38;3.05;;;;;;;;;;10365633;28;20061;-84
2023/09/14 18:23:55;;;;;;;4.07;2.53;;;;;;;;;;10383164;28;20041;-84
2023/09/14 18:29:03;;;;;;;5.93;3.10;;;;;;;;;;10366348;28;20030;-84
2023/09/14 18:34:36;;;;;;;5.53;2.92;;;;;;;;;;10382710;28;20042;-85
2023/09/14 18:39:49;;;;;;;4.43;3.20;;;;;;;;;;10364636;28;20041;-83
2023/09/14 18:44:51;;;;;;;4.85;3.67;;;;;;;;;;10363017;28;20108;-84
2023/09/14 18:49:58;;;;;;;5.00;3.50;;;;;;;;;;10450176;28;20025;-84
2023/09/14 18:54:59;;;;;;;5.68;3.50;;;;;;;;;;10457751;28;20040;-84
2023/09/14 19:00:01;;;;;;;6.93;5.20;;;;;;;;;;10457539;28;20040;-84
2023/09/14 19:05:03;;;;;;;4.28;3.10;;;;;;;;;;10456920;28;20086;-84
2023/09/14 19:10:04;;;;;;;6.30;3.75;;;;;;;;;;10456356;28;20501;-85
